Terminal Aerodrome Forecast
Issued by NWS Duluth, MN

Home | Current Version | Previous Version | Text Only | Print | Product List | Glossary On
Versions: 1 2 3 4 5 6 7 8 9 10 11 12 13 14 15 16 17 18 19 20 21 22 23 24
000
FTUS43 KDLH 191300 AAA
TAFINL
TAF AMD
KINL 191325Z 1913/2012 13018G25KT P6SM BKN020 OVC040
      TEMPO 1914/1918 SCT020 OVC040
     FM191800 16015G25KT P6SM SCT021 BKN250
     FM192000 18010KT P6SM SCT015
     FM200000 VRB05KT 6SM BR BKN250=

USA.gov is the U.S. government's official web portal to all federal, state and local government web resources and services.